sensor_id;sensor_type;location;lat;lon;timestamp;temperature;humidity
21189;DHT22;39071;52.420;20.896;2023-03-23T00:01:20;8.40;1.00
21189;DHT22;39071;52.420;20.896;2023-03-23T00:03:48;8.40;1.00
21189;DHT22;39071;52.420;20.896;2023-03-23T00:06:15;8.30;2.20
21189;DHT22;39071;52.420;20.896;2023-03-23T00:08:48;8.30;1.00
21189;DHT22;39071;52.420;20.896;2023-03-23T00:11:22;8.30;1.00
21189;DHT22;39071;52.420;20.896;2023-03-23T00:13:50;8.30;1.00
21189;DHT22;39071;52.420;20.896;2023-03-23T00:16:21;8.30;1.00
21189;DHT22;39071;52.420;20.896;2023-03-23T00:19:00;8.30;1.00
21189;DHT22;39071;52.420;20.896;2023-03-23T00:21:33;8.30;1.00
21189;DHT22;39071;52.420;20.896;2023-03-23T00:24:11;8.30;1.00
21189;DHT22;39071;52.420;20.896;2023-03-23T00:26:40;8.30;1.00
21189;DHT22;39071;52.420;20.896;2023-03-23T00:29:09;8.30;1.00
21189;DHT22;39071;52.420;20.896;2023-03-23T00:31:39;8.30;1.00
21189;DHT22;39071;52.420;20.896;2023-03-23T00:34:05;8.30;1.00
21189;DHT22;39071;52.420;20.896;2023-03-23T00:36:33;8.30;1.00
21189;DHT22;39071;52.420;20.896;2023-03-23T00:39:01;8.30;1.00
21189;DHT22;39071;52.420;20.896;2023-03-23T00:41:28;8.30;1.00
21189;DHT22;39071;52.420;20.896;2023-03-23T00:43:56;8.30;1.00
21189;DHT22;39071;52.420;20.896;2023-03-23T00:46:22;8.20;1.00
21189;DHT22;39071;52.420;20.896;2023-03-23T00:48:48;8.20;1.00
21189;DHT22;39071;52.420;20.896;2023-03-23T00:51:16;8.20;1.00
21189;DHT22;39071;52.420;20.896;2023-03-23T00:53:44;8.20;1.00
21189;DHT22;39071;52.420;20.896;2023-03-23T00:56:10;8.30;1.00
21189;DHT22;39071;52.420;20.896;2023-03-23T00:58:36;8.30;1.00
21189;DHT22;39071;52.420;20.896;2023-03-23T01:01:02;8.30;1.00
21189;DHT22;39071;52.420;20.896;2023-03-23T01:03:29;8.30;1.00
21189;DHT22;39071;52.420;20.896;2023-03-23T01:05:55;8.30;1.00
21189;DHT22;39071;52.420;20.896;2023-03-23T01:08:22;8.40;1.00
21189;DHT22;39071;52.420;20.896;2023-03-23T01:10:49;8.40;1.00
21189;DHT22;39071;52.420;20.896;2023-03-23T01:13:15;8.40;99.90
21189;DHT22;39071;52.420;20.896;2023-03-23T01:15:42;8.40;99.90
21189;DHT22;39071;52.420;20.896;2023-03-23T01:18:08;8.40;99.90
21189;DHT22;39071;52.420;20.896;2023-03-23T01:20:35;8.30;99.90
21189;DHT22;39071;52.420;20.896;2023-03-23T01:23:02;8.40;1.00
21189;DHT22;39071;52.420;20.896;2023-03-23T01:25:29;8.30;99.90
21189;DHT22;39071;52.420;20.896;2023-03-23T01:27:56;8.30;1.00
21189;DHT22;39071;52.420;20.896;2023-03-23T01:30:23;8.30;1.00
21189;DHT22;39071;52.420;20.896;2023-03-23T01:32:49;8.40;21.10
21189;DHT22;39071;52.420;20.896;2023-03-23T01:35:15;8.50;1.00
21189;DHT22;39071;52.420;20.896;2023-03-23T01:37:41;8.40;1.00
21189;DHT22;39071;52.420;20.896;2023-03-23T01:40:07;8.40;1.00
21189;DHT22;39071;52.420;20.896;2023-03-23T01:42:36;8.40;1.00
21189;DHT22;39071;52.420;20.896;2023-03-23T01:45:24;8.30;1.00
21189;DHT22;39071;52.420;20.896;2023-03-23T01:50:22;8.30;45.30
21189;DHT22;39071;52.420;20.896;2023-03-23T01:52:51;8.30;99.90
21189;DHT22;39071;52.420;20.896;2023-03-23T01:55:19;8.30;99.90
21189;DHT22;39071;52.420;20.896;2023-03-23T01:57:46;8.30;99.90
21189;DHT22;39071;52.420;20.896;2023-03-23T02:00:13;8.30;99.90
21189;DHT22;39071;52.420;20.896;2023-03-23T02:02:47;8.20;95.20
21189;DHT22;39071;52.420;20.896;2023-03-23T02:05:20;8.20;99.90
21189;DHT22;39071;52.420;20.896;2023-03-23T02:07:47;8.20;99.90
21189;DHT22;39071;52.420;20.896;2023-03-23T02:10:14;8.10;99.90
21189;DHT22;39071;52.420;20.896;2023-03-23T02:12:40;8.10;99.90
21189;DHT22;39071;52.420;20.896;2023-03-23T02:15:06;8.10;1.00
21189;DHT22;39071;52.420;20.896;2023-03-23T02:29:26;8.30;99.90
21189;DHT22;39071;52.420;20.896;2023-03-23T02:31:57;8.30;99.90
21189;DHT22;39071;52.420;20.896;2023-03-23T02:37:06;8.40;1.00
21189;DHT22;39071;52.420;20.896;2023-03-23T02:39:52;8.50;1.00
21189;DHT22;39071;52.420;20.896;2023-03-23T02:42:28;8.60;1.00
21189;DHT22;39071;52.420;20.896;2023-03-23T02:44:59;8.60;99.90
21189;DHT22;39071;52.420;20.896;2023-03-23T02:47:29;8.70;1.00
21189;DHT22;39071;52.420;20.896;2023-03-23T02:49:57;8.70;1.00
21189;DHT22;39071;52.420;20.896;2023-03-23T02:52:29;8.80;99.90
21189;DHT22;39071;52.420;20.896;2023-03-23T02:54:57;8.90;99.90
21189;DHT22;39071;52.420;20.896;2023-03-23T02:57:25;9.00;99.90
21189;DHT22;39071;52.420;20.896;2023-03-23T02:59:52;9.10;99.90
21189;DHT22;39071;52.420;20.896;2023-03-23T03:02:21;9.00;1.00
21189;DHT22;39071;52.420;20.896;2023-03-23T03:08:14;9.10;1.00
21189;DHT22;39071;52.420;20.896;2023-03-23T03:10:49;9.20;1.00
21189;DHT22;39071;52.420;20.896;2023-03-23T03:16:27;9.30;33.40
21189;DHT22;39071;52.420;20.896;2023-03-23T03:21:44;9.40;1.00
21189;DHT22;39071;52.420;20.896;2023-03-23T03:24:14;9.50;1.00
21189;DHT22;39071;52.420;20.896;2023-03-23T03:26:44;9.40;1.00
21189;DHT22;39071;52.420;20.896;2023-03-23T03:29:21;9.30;99.90
21189;DHT22;39071;52.420;20.896;2023-03-23T03:31:49;9.50;1.00
21189;DHT22;39071;52.420;20.896;2023-03-23T03:34:17;9.40;99.90
21189;DHT22;39071;52.420;20.896;2023-03-23T03:36:47;9.40;99.90
21189;DHT22;39071;52.420;20.896;2023-03-23T03:39:14;9.40;99.90
21189;DHT22;39071;52.420;20.896;2023-03-23T03:41:41;9.30;99.90
21189;DHT22;39071;52.420;20.896;2023-03-23T03:44:07;9.30;1.00
21189;DHT22;39071;52.420;20.896;2023-03-23T03:46:34;9.30;99.90
21189;DHT22;39071;52.420;20.896;2023-03-23T03:49:03;9.10;99.90
21189;DHT22;39071;52.420;20.896;2023-03-23T03:51:30;9.10;1.00
21189;DHT22;39071;52.420;20.896;2023-03-23T03:53:56;9.10;99.90
21189;DHT22;39071;52.420;20.896;2023-03-23T03:56:22;9.20;1.00
21189;DHT22;39071;52.420;20.896;2023-03-23T03:58:49;9.30;99.90
21189;DHT22;39071;52.420;20.896;2023-03-23T04:01:17;9.30;1.00
21189;DHT22;39071;52.420;20.896;2023-03-23T04:03:44;9.20;1.00
21189;DHT22;39071;52.420;20.896;2023-03-23T04:06:10;9.20;1.00
21189;DHT22;39071;52.420;20.896;2023-03-23T04:08:38;9.10;99.90
21189;DHT22;39071;52.420;20.896;2023-03-23T04:11:05;9.10;1.00
21189;DHT22;39071;52.420;20.896;2023-03-23T04:13:31;9.10;1.00
21189;DHT22;39071;52.420;20.896;2023-03-23T04:15:57;9.10;1.00
21189;DHT22;39071;52.420;20.896;2023-03-23T04:18:23;9.00;99.90
21189;DHT22;39071;52.420;20.896;2023-03-23T04:20:50;9.00;1.00
21189;DHT22;39071;52.420;20.896;2023-03-23T04:23:20;9.00;1.00
21189;DHT22;39071;52.420;20.896;2023-03-23T04:25:48;9.00;1.00
21189;DHT22;39071;52.420;20.896;2023-03-23T04:28:15;9.00;1.00
21189;DHT22;39071;52.420;20.896;2023-03-23T04:30:45;9.10;1.00
21189;DHT22;39071;52.420;20.896;2023-03-23T04:33:14;9.00;1.00
21189;DHT22;39071;52.420;20.896;2023-03-23T04:35:42;9.00;1.00
21189;DHT22;39071;52.420;20.896;2023-03-23T04:38:08;9.00;1.00
21189;DHT22;39071;52.420;20.896;2023-03-23T04:40:38;9.00;60.50
21189;DHT22;39071;52.420;20.896;2023-03-23T04:43:05;9.00;1.00
21189;DHT22;39071;52.420;20.896;2023-03-23T04:45:32;9.20;1.00
21189;DHT22;39071;52.420;20.896;2023-03-23T04:47:58;9.10;99.90
21189;DHT22;39071;52.420;20.896;2023-03-23T04:50:28;9.00;1.00
21189;DHT22;39071;52.420;20.896;2023-03-23T04:52:56;9.00;1.00
21189;DHT22;39071;52.420;20.896;2023-03-23T04:55:24;9.00;1.00
21189;DHT22;39071;52.420;20.896;2023-03-23T04:57:50;9.00;59.90
21189;DHT22;39071;52.420;20.896;2023-03-23T05:00:17;9.10;99.90
21189;DHT22;39071;52.420;20.896;2023-03-23T05:02:44;9.20;1.00
21189;DHT22;39071;52.420;20.896;2023-03-23T05:05:13;9.10;1.00
21189;DHT22;39071;52.420;20.896;2023-03-23T05:07:39;9.10;1.00
21189;DHT22;39071;52.420;20.896;2023-03-23T05:10:07;9.20;1.00
21189;DHT22;39071;52.420;20.896;2023-03-23T05:12:33;9.20;1.00
21189;DHT22;39071;52.420;20.896;2023-03-23T05:14:59;9.30;1.00
21189;DHT22;39071;52.420;20.896;2023-03-23T05:17:25;9.20;1.00
21189;DHT22;39071;52.420;20.896;2023-03-23T05:19:52;9.40;1.00
21189;DHT22;39071;52.420;20.896;2023-03-23T05:22:18;9.30;99.90
21189;DHT22;39071;52.420;20.896;2023-03-23T05:24:47;9.20;1.00
21189;DHT22;39071;52.420;20.896;2023-03-23T05:27:13;9.20;1.00
21189;DHT22;39071;52.420;20.896;2023-03-23T05:29:40;9.30;1.00
21189;DHT22;39071;52.420;20.896;2023-03-23T05:32:07;9.40;1.00
21189;DHT22;39071;52.420;20.896;2023-03-23T05:34:33;9.60;99.90
21189;DHT22;39071;52.420;20.896;2023-03-23T05:37:00;9.70;1.00
21189;DHT22;39071;52.420;20.896;2023-03-23T05:39:27;9.70;1.00
21189;DHT22;39071;52.420;20.896;2023-03-23T05:41:54;9.80;1.00
21189;DHT22;39071;52.420;20.896;2023-03-23T05:44:20;9.90;99.90
21189;DHT22;39071;52.420;20.896;2023-03-23T05:46:46;9.90;1.00
21189;DHT22;39071;52.420;20.896;2023-03-23T05:49:13;10.00;1.00
21189;DHT22;39071;52.420;20.896;2023-03-23T05:51:39;10.00;99.90
21189;DHT22;39071;52.420;20.896;2023-03-23T05:54:05;10.20;1.00
21189;DHT22;39071;52.420;20.896;2023-03-23T05:56:31;10.30;1.00
21189;DHT22;39071;52.420;20.896;2023-03-23T05:58:59;10.30;99.90
21189;DHT22;39071;52.420;20.896;2023-03-23T06:01:25;10.30;99.90
21189;DHT22;39071;52.420;20.896;2023-03-23T06:03:51;10.30;1.00
21189;DHT22;39071;52.420;20.896;2023-03-23T06:06:20;10.30;1.00
21189;DHT22;39071;52.420;20.896;2023-03-23T06:08:46;10.40;1.00
21189;DHT22;39071;52.420;20.896;2023-03-23T06:11:14;10.40;1.00
21189;DHT22;39071;52.420;20.896;2023-03-23T06:13:40;10.40;1.00
21189;DHT22;39071;52.420;20.896;2023-03-23T06:16:06;10.40;1.00
21189;DHT22;39071;52.420;20.896;2023-03-23T06:18:31;10.60;99.90
21189;DHT22;39071;52.420;20.896;2023-03-23T06:20:59;10.60;1.00
21189;DHT22;39071;52.420;20.896;2023-03-23T06:23:26;10.60;1.00
21189;DHT22;39071;52.420;20.896;2023-03-23T06:26:01;10.60;1.00
21189;DHT22;39071;52.420;20.896;2023-03-23T06:28:27;10.70;1.00
21189;DHT22;39071;52.420;20.896;2023-03-23T06:30:53;11.10;1.00
21189;DHT22;39071;52.420;20.896;2023-03-23T06:33:19;11.00;99.90
21189;DHT22;39071;52.420;20.896;2023-03-23T06:35:45;11.40;1.00
21189;DHT22;39071;52.420;20.896;2023-03-23T06:38:11;11.60;1.00
21189;DHT22;39071;52.420;20.896;2023-03-23T06:40:37;11.70;1.00
21189;DHT22;39071;52.420;20.896;2023-03-23T06:43:03;11.70;1.00
21189;DHT22;39071;52.420;20.896;2023-03-23T06:45:30;11.90;99.90
21189;DHT22;39071;52.420;20.896;2023-03-23T06:47:56;11.80;99.90
21189;DHT22;39071;52.420;20.896;2023-03-23T06:50:22;11.90;99.90
21189;DHT22;39071;52.420;20.896;2023-03-23T06:52:49;12.00;99.90
21189;DHT22;39071;52.420;20.896;2023-03-23T06:55:17;12.10;99.90
21189;DHT22;39071;52.420;20.896;2023-03-23T06:57:43;12.30;12.10
21189;DHT22;39071;52.420;20.896;2023-03-23T07:00:11;12.70;1.00
21189;DHT22;39071;52.420;20.896;2023-03-23T07:02:39;13.00;1.00
21189;DHT22;39071;52.420;20.896;2023-03-23T07:05:07;13.20;1.00
21189;DHT22;39071;52.420;20.896;2023-03-23T07:07:33;13.50;1.00
21189;DHT22;39071;52.420;20.896;2023-03-23T07:09:58;13.90;1.00
21189;DHT22;39071;52.420;20.896;2023-03-23T07:12:24;14.20;99.90
21189;DHT22;39071;52.420;20.896;2023-03-23T07:14:50;14.60;99.90
21189;DHT22;39071;52.420;20.896;2023-03-23T07:17:16;14.80;99.90
21189;DHT22;39071;52.420;20.896;2023-03-23T07:19:42;15.00;99.90
21189;DHT22;39071;52.420;20.896;2023-03-23T07:22:08;14.80;99.90
21189;DHT22;39071;52.420;20.896;2023-03-23T07:24:34;15.00;99.90
21189;DHT22;39071;52.420;20.896;2023-03-23T07:27:01;15.30;99.90
21189;DHT22;39071;52.420;20.896;2023-03-23T07:29:27;15.70;99.80
21189;DHT22;39071;52.420;20.896;2023-03-23T07:31:53;16.20;99.90
21189;DHT22;39071;52.420;20.896;2023-03-23T07:34:19;16.10;48.00
21189;DHT22;39071;52.420;20.896;2023-03-23T07:36:46;15.90;15.80
21189;DHT22;39071;52.420;20.896;2023-03-23T07:39:13;16.00;6.80
21189;DHT22;39071;52.420;20.896;2023-03-23T07:41:38;15.90;1.00
21189;DHT22;39071;52.420;20.896;2023-03-23T07:44:05;15.90;1.00
21189;DHT22;39071;52.420;20.896;2023-03-23T07:46:31;16.10;1.00
21189;DHT22;39071;52.420;20.896;2023-03-23T07:48:57;15.90;1.00
21189;DHT22;39071;52.420;20.896;2023-03-23T07:51:23;16.20;1.00
21189;DHT22;39071;52.420;20.896;2023-03-23T07:53:50;16.60;1.00
21189;DHT22;39071;52.420;20.896;2023-03-23T07:56:16;17.30;1.00
21189;DHT22;39071;52.420;20.896;2023-03-23T07:58:46;17.80;1.00
21189;DHT22;39071;52.420;20.896;2023-03-23T08:01:12;18.10;1.00
21189;DHT22;39071;52.420;20.896;2023-03-23T08:03:38;17.90;1.00
21189;DHT22;39071;52.420;20.896;2023-03-23T08:06:04;17.80;1.00
21189;DHT22;39071;52.420;20.896;2023-03-23T08:08:31;17.50;1.00
21189;DHT22;39071;52.420;20.896;2023-03-23T08:10:57;17.30;1.00
21189;DHT22;39071;52.420;20.896;2023-03-23T08:13:23;16.90;1.00
21189;DHT22;39071;52.420;20.896;2023-03-23T08:15:50;16.70;1.00
21189;DHT22;39071;52.420;20.896;2023-03-23T08:18:17;16.50;1.00
21189;DHT22;39071;52.420;20.896;2023-03-23T08:20:43;16.40;1.00
21189;DHT22;39071;52.420;20.896;2023-03-23T08:23:10;16.40;1.00
21189;DHT22;39071;52.420;20.896;2023-03-23T08:25:37;16.30;1.00
21189;DHT22;39071;52.420;20.896;2023-03-23T08:28:03;16.10;1.00
21189;DHT22;39071;52.420;20.896;2023-03-23T08:30:30;16.30;1.00
21189;DHT22;39071;52.420;20.896;2023-03-23T08:32:59;16.20;1.00
21189;DHT22;39071;52.420;20.896;2023-03-23T08:35:26;16.10;1.00
21189;DHT22;39071;52.420;20.896;2023-03-23T08:37:52;16.00;1.00
21189;DHT22;39071;52.420;20.896;2023-03-23T08:40:22;16.10;1.00
21189;DHT22;39071;52.420;20.896;2023-03-23T08:42:49;16.10;1.00
21189;DHT22;39071;52.420;20.896;2023-03-23T08:45:18;16.10;1.00
21189;DHT22;39071;52.420;20.896;2023-03-23T08:47:44;16.10;1.00
21189;DHT22;39071;52.420;20.896;2023-03-23T08:50:14;16.00;1.00
21189;DHT22;39071;52.420;20.896;2023-03-23T08:52:41;15.90;1.00
21189;DHT22;39071;52.420;20.896;2023-03-23T08:55:08;16.00;1.00
21189;DHT22;39071;52.420;20.896;2023-03-23T08:57:37;15.70;1.00
21189;DHT22;39071;52.420;20.896;2023-03-23T09:00:05;15.70;1.00
21189;DHT22;39071;52.420;20.896;2023-03-23T09:02:47;15.60;1.00
21189;DHT22;39071;52.420;20.896;2023-03-23T09:05:15;15.50;1.00
21189;DHT22;39071;52.420;20.896;2023-03-23T09:07:44;15.50;1.00
21189;DHT22;39071;52.420;20.896;2023-03-23T09:10:11;15.40;1.00
21189;DHT22;39071;52.420;20.896;2023-03-23T09:12:39;15.50;1.00
21189;DHT22;39071;52.420;20.896;2023-03-23T09:15:06;15.40;1.00
21189;DHT22;39071;52.420;20.896;2023-03-23T09:17:47;15.40;1.00
21189;DHT22;39071;52.420;20.896;2023-03-23T09:20:16;15.50;1.00
21189;DHT22;39071;52.420;20.896;2023-03-23T09:22:44;15.50;1.00
21189;DHT22;39071;52.420;20.896;2023-03-23T09:25:13;15.50;1.00
21189;DHT22;39071;52.420;20.896;2023-03-23T09:27:41;15.50;1.00
21189;DHT22;39071;52.420;20.896;2023-03-23T09:30:10;15.50;1.00
21189;DHT22;39071;52.420;20.896;2023-03-23T09:32:37;15.50;1.00
21189;DHT22;39071;52.420;20.896;2023-03-23T09:35:05;15.60;1.00
21189;DHT22;39071;52.420;20.896;2023-03-23T09:37:37;15.70;1.00
21189;DHT22;39071;52.420;20.896;2023-03-23T09:40:06;15.70;1.00
21189;DHT22;39071;52.420;20.896;2023-03-23T09:42:54;15.70;1.00
21189;DHT22;39071;52.420;20.896;2023-03-23T09:50:49;16.10;1.00
21189;DHT22;39071;52.420;20.896;2023-03-23T09:53:24;16.10;1.00
21189;DHT22;39071;52.420;20.896;2023-03-23T09:55:52;16.20;1.00
21189;DHT22;39071;52.420;20.896;2023-03-23T09:58:33;16.50;1.00
21189;DHT22;39071;52.420;20.896;2023-03-23T10:01:10;16.60;1.00
21189;DHT22;39071;52.420;20.896;2023-03-23T10:03:44;17.10;1.00
21189;DHT22;39071;52.420;20.896;2023-03-23T10:06:13;17.50;1.00
21189;DHT22;39071;52.420;20.896;2023-03-23T10:08:49;18.00;1.00
21189;DHT22;39071;52.420;20.896;2023-03-23T10:14:34;18.10;1.00
21189;DHT22;39071;52.420;20.896;2023-03-23T10:25:32;19.00;1.00
21189;DHT22;39071;52.420;20.896;2023-03-23T10:28:15;19.20;1.00
21189;DHT22;39071;52.420;20.896;2023-03-23T10:30:53;19.50;1.00
21189;DHT22;39071;52.420;20.896;2023-03-23T10:33:42;19.90;1.00
21189;DHT22;39071;52.420;20.896;2023-03-23T10:36:22;19.80;1.00
21189;DHT22;39071;52.420;20.896;2023-03-23T10:39:19;19.50;1.00
21189;DHT22;39071;52.420;20.896;2023-03-23T10:41:47;19.20;1.00
21189;DHT22;39071;52.420;20.896;2023-03-23T10:44:20;19.40;1.00
21189;DHT22;39071;52.420;20.896;2023-03-23T10:47:01;19.20;1.00
21189;DHT22;39071;52.420;20.896;2023-03-23T10:55:13;19.00;1.00
21189;DHT22;39071;52.420;20.896;2023-03-23T10:57:42;19.60;1.00
21189;DHT22;39071;52.420;20.896;2023-03-23T11:02:45;20.20;1.00
21189;DHT22;39071;52.420;20.896;2023-03-23T11:05:20;20.60;1.00
21189;DHT22;39071;52.420;20.896;2023-03-23T11:07:53;20.30;1.00
21189;DHT22;39071;52.420;20.896;2023-03-23T11:10:34;20.20;1.00
21189;DHT22;39071;52.420;20.896;2023-03-23T11:13:00;20.20;1.00
21189;DHT22;39071;52.420;20.896;2023-03-23T11:18:02;20.70;1.00
21189;DHT22;39071;52.420;20.896;2023-03-23T11:20:34;21.00;1.00
21189;DHT22;39071;52.420;20.896;2023-03-23T11:23:07;20.90;1.00
21189;DHT22;39071;52.420;20.896;2023-03-23T11:25:33;21.00;1.00
21189;DHT22;39071;52.420;20.896;2023-03-23T11:28:01;20.70;1.00
21189;DHT22;39071;52.420;20.896;2023-03-23T11:30:30;20.20;1.00
21189;DHT22;39071;52.420;20.896;2023-03-23T11:33:00;20.00;1.00
21189;DHT22;39071;52.420;20.896;2023-03-23T11:35:28;19.80;1.00
21189;DHT22;39071;52.420;20.896;2023-03-23T11:37:58;19.80;1.00
21189;DHT22;39071;52.420;20.896;2023-03-23T11:40:30;20.10;1.00
21189;DHT22;39071;52.420;20.896;2023-03-23T11:43:07;20.00;1.00
21189;DHT22;39071;52.420;20.896;2023-03-23T11:45:36;20.00;1.00
21189;DHT22;39071;52.420;20.896;2023-03-23T11:48:28;20.60;1.00
21189;DHT22;39071;52.420;20.896;2023-03-23T11:51:28;21.00;1.00
21189;DHT22;39071;52.420;20.896;2023-03-23T11:54:08;21.00;1.00
21189;DHT22;39071;52.420;20.896;2023-03-23T11:56:41;21.20;1.00
21189;DHT22;39071;52.420;20.896;2023-03-23T11:59:16;21.10;1.00
21189;DHT22;39071;52.420;20.896;2023-03-23T12:07:32;21.10;1.00
21189;DHT22;39071;52.420;20.896;2023-03-23T12:15:52;20.70;1.00
21189;DHT22;39071;52.420;20.896;2023-03-23T12:18:37;21.00;1.00
21189;DHT22;39071;52.420;20.896;2023-03-23T12:26:27;21.70;1.00
21189;DHT22;39071;52.420;20.896;2023-03-23T12:35:05;21.10;1.00
21189;DHT22;39071;52.420;20.896;2023-03-23T12:41:02;20.50;1.00
21189;DHT22;39071;52.420;20.896;2023-03-23T12:43:39;20.50;1.00
21189;DHT22;39071;52.420;20.896;2023-03-23T12:46:35;20.60;1.00
21189;DHT22;39071;52.420;20.896;2023-03-23T12:52:01;20.30;1.00
21189;DHT22;39071;52.420;20.896;2023-03-23T12:54:35;20.20;1.00
21189;DHT22;39071;52.420;20.896;2023-03-23T13:05:29;19.40;1.00
21189;DHT22;39071;52.420;20.896;2023-03-23T13:08:29;19.30;1.00
21189;DHT22;39071;52.420;20.896;2023-03-23T13:11:01;19.30;1.00
21189;DHT22;39071;52.420;20.896;2023-03-23T13:21:34;19.10;1.00
21189;DHT22;39071;52.420;20.896;2023-03-23T13:24:08;19.00;1.00
21189;DHT22;39071;52.420;20.896;2023-03-23T13:26:41;19.00;1.00
21189;DHT22;39071;52.420;20.896;2023-03-23T13:29:20;18.90;1.00
21189;DHT22;39071;52.420;20.896;2023-03-23T13:31:50;18.90;1.00
21189;DHT22;39071;52.420;20.896;2023-03-23T13:34:19;18.80;1.00
21189;DHT22;39071;52.420;20.896;2023-03-23T13:36:55;18.70;1.00
21189;DHT22;39071;52.420;20.896;2023-03-23T13:39:27;18.90;1.00
21189;DHT22;39071;52.420;20.896;2023-03-23T13:50:02;18.80;1.00
21189;DHT22;39071;52.420;20.896;2023-03-23T13:55:42;18.70;1.00
21189;DHT22;39071;52.420;20.896;2023-03-23T14:00:47;18.50;1.00
21189;DHT22;39071;52.420;20.896;2023-03-23T14:03:23;18.40;1.00
21189;DHT22;39071;52.420;20.896;2023-03-23T14:08:41;18.20;1.00
21189;DHT22;39071;52.420;20.896;2023-03-23T14:11:23;18.10;1.00
21189;DHT22;39071;52.420;20.896;2023-03-23T14:14:14;18.00;1.00
21189;DHT22;39071;52.420;20.896;2023-03-23T14:16:49;18.00;1.00
21189;DHT22;39071;52.420;20.896;2023-03-23T14:19:28;18.00;1.00
21189;DHT22;39071;52.420;20.896;2023-03-23T14:21:59;17.90;1.00
21189;DHT22;39071;52.420;20.896;2023-03-23T14:24:31;17.90;1.00
21189;DHT22;39071;52.420;20.896;2023-03-23T14:27:23;17.80;1.00
21189;DHT22;39071;52.420;20.896;2023-03-23T14:30:04;17.80;1.00
21189;DHT22;39071;52.420;20.896;2023-03-23T14:32:31;17.70;1.00
21189;DHT22;39071;52.420;20.896;2023-03-23T14:34:59;17.60;1.00
21189;DHT22;39071;52.420;20.896;2023-03-23T14:37:26;17.50;1.00
21189;DHT22;39071;52.420;20.896;2023-03-23T14:39:53;17.50;1.00
21189;DHT22;39071;52.420;20.896;2023-03-23T14:42:30;17.30;1.00
21189;DHT22;39071;52.420;20.896;2023-03-23T14:44:57;17.30;1.00
21189;DHT22;39071;52.420;20.896;2023-03-23T14:47:31;17.20;1.00
21189;DHT22;39071;52.420;20.896;2023-03-23T14:50:00;17.20;1.00
21189;DHT22;39071;52.420;20.896;2023-03-23T14:52:27;17.20;1.00
21189;DHT22;39071;52.420;20.896;2023-03-23T14:54:54;17.00;1.00
21189;DHT22;39071;52.420;20.896;2023-03-23T14:57:28;17.10;1.00
21189;DHT22;39071;52.420;20.896;2023-03-23T14:59:54;17.00;1.00
21189;DHT22;39071;52.420;20.896;2023-03-23T15:04:58;17.00;1.00
21189;DHT22;39071;52.420;20.896;2023-03-23T15:07:31;16.90;1.00
21189;DHT22;39071;52.420;20.896;2023-03-23T15:09:57;16.80;1.00
21189;DHT22;39071;52.420;20.896;2023-03-23T15:12:30;16.80;1.00
21189;DHT22;39071;52.420;20.896;2023-03-23T15:15:02;16.80;1.00
21189;DHT22;39071;52.420;20.896;2023-03-23T15:17:32;16.80;1.00
21189;DHT22;39071;52.420;20.896;2023-03-23T15:20:19;16.70;1.00
21189;DHT22;39071;52.420;20.896;2023-03-23T15:22:47;16.60;1.00
21189;DHT22;39071;52.420;20.896;2023-03-23T15:27:55;16.50;1.00
21189;DHT22;39071;52.420;20.896;2023-03-23T15:32:55;16.60;1.00
21189;DHT22;39071;52.420;20.896;2023-03-23T15:35:25;16.50;1.00
21189;DHT22;39071;52.420;20.896;2023-03-23T15:37:56;16.50;1.00
21189;DHT22;39071;52.420;20.896;2023-03-23T15:40:24;16.30;1.00
21189;DHT22;39071;52.420;20.896;2023-03-23T15:43:07;16.40;1.00
21189;DHT22;39071;52.420;20.896;2023-03-23T15:45:32;16.50;1.00
21189;DHT22;39071;52.420;20.896;2023-03-23T15:48:12;16.50;1.00
21189;DHT22;39071;52.420;20.896;2023-03-23T15:50:40;16.40;1.00
21189;DHT22;39071;52.420;20.896;2023-03-23T15:53:30;16.30;1.00
21189;DHT22;39071;52.420;20.896;2023-03-23T15:56:02;16.30;1.00
21189;DHT22;39071;52.420;20.896;2023-03-23T15:58:29;16.20;1.00
21189;DHT22;39071;52.420;20.896;2023-03-23T16:00:55;16.20;1.00
21189;DHT22;39071;52.420;20.896;2023-03-23T16:03:24;16.00;1.00
21189;DHT22;39071;52.420;20.896;2023-03-23T16:05:55;15.90;1.00
21189;DHT22;39071;52.420;20.896;2023-03-23T16:08:22;16.00;1.00
21189;DHT22;39071;52.420;20.896;2023-03-23T16:10:48;16.00;1.00
21189;DHT22;39071;52.420;20.896;2023-03-23T16:13:15;16.10;1.00
21189;DHT22;39071;52.420;20.896;2023-03-23T16:15:41;16.00;1.00
21189;DHT22;39071;52.420;20.896;2023-03-23T16:18:14;16.00;1.00
21189;DHT22;39071;52.420;20.896;2023-03-23T16:20:40;15.80;1.00
21189;DHT22;39071;52.420;20.896;2023-03-23T16:23:06;15.80;1.00
21189;DHT22;39071;52.420;20.896;2023-03-23T16:25:32;15.80;10.40
21189;DHT22;39071;52.420;20.896;2023-03-23T16:27:58;15.50;77.40
21189;DHT22;39071;52.420;20.896;2023-03-23T16:30:25;15.50;90.00
21189;DHT22;39071;52.420;20.896;2023-03-23T16:32:51;15.50;99.90
21189;DHT22;39071;52.420;20.896;2023-03-23T16:35:18;15.60;99.90
21189;DHT22;39071;52.420;20.896;2023-03-23T16:37:49;15.60;99.90
21189;DHT22;39071;52.420;20.896;2023-03-23T16:40:16;15.50;99.90
21189;DHT22;39071;52.420;20.896;2023-03-23T16:42:42;15.50;99.90
21189;DHT22;39071;52.420;20.896;2023-03-23T16:45:09;15.50;99.90
21189;DHT22;39071;52.420;20.896;2023-03-23T16:47:35;15.40;99.90
21189;DHT22;39071;52.420;20.896;2023-03-23T16:50:02;15.40;99.90
21189;DHT22;39071;52.420;20.896;2023-03-23T16:52:28;15.40;99.90
21189;DHT22;39071;52.420;20.896;2023-03-23T16:54:53;15.30;99.90
21189;DHT22;39071;52.420;20.896;2023-03-23T16:57:19;15.30;99.90
21189;DHT22;39071;52.420;20.896;2023-03-23T16:59:45;15.30;99.90
21189;DHT22;39071;52.420;20.896;2023-03-23T17:02:11;15.20;99.90
21189;DHT22;39071;52.420;20.896;2023-03-23T17:04:42;15.10;1.00
21189;DHT22;39071;52.420;20.896;2023-03-23T17:07:08;15.00;1.00
21189;DHT22;39071;52.420;20.896;2023-03-23T17:09:34;14.90;1.00
21189;DHT22;39071;52.420;20.896;2023-03-23T17:12:00;14.80;1.00
21189;DHT22;39071;52.420;20.896;2023-03-23T17:14:26;14.80;1.00
21189;DHT22;39071;52.420;20.896;2023-03-23T17:16:52;14.80;1.00
21189;DHT22;39071;52.420;20.896;2023-03-23T17:19:18;14.70;1.00
21189;DHT22;39071;52.420;20.896;2023-03-23T17:21:43;14.60;1.00
21189;DHT22;39071;52.420;20.896;2023-03-23T17:24:09;14.60;1.00
21189;DHT22;39071;52.420;20.896;2023-03-23T17:26:35;14.50;1.00
21189;DHT22;39071;52.420;20.896;2023-03-23T17:29:01;14.50;99.90
21189;DHT22;39071;52.420;20.896;2023-03-23T17:31:27;14.50;99.90
21189;DHT22;39071;52.420;20.896;2023-03-23T17:33:53;14.40;99.90
21189;DHT22;39071;52.420;20.896;2023-03-23T17:36:20;14.30;99.90
21189;DHT22;39071;52.420;20.896;2023-03-23T17:38:45;14.20;1.00
21189;DHT22;39071;52.420;20.896;2023-03-23T17:41:11;14.10;1.00
21189;DHT22;39071;52.420;20.896;2023-03-23T17:43:38;14.10;1.00
21189;DHT22;39071;52.420;20.896;2023-03-23T17:46:06;14.00;1.00
21189;DHT22;39071;52.420;20.896;2023-03-23T17:48:32;14.00;1.00
21189;DHT22;39071;52.420;20.896;2023-03-23T17:50:58;13.90;1.00